Time;durP1;ratioP1;P1;durP2;ratioP2;P2;SDS_P1;SDS_P2;PMS_P1;PMS_P2;Temp;Humidity;BMP_temperature;BMP_pressure;BME280_temperature;BME280_humidity;BME280_pressure;Samples;Min_cycle;Max_cycle;Signal;HPM_P1;HPM_P2
2021/01/11 00:00:21;;;;;;;22.53;12.60;;;-4.30;99.90;;;;;;6180749;23;20481;-89
2021/01/11 00:02:48;;;;;;;23.48;12.63;;;-4.30;99.90;;;;;;6180865;23;20191;-90
2021/01/11 00:05:14;;;;;;;19.30;11.40;;;-4.20;99.90;;;;;;6181141;23;20442;-89
2021/01/11 00:07:41;;;;;;;22.67;13.40;;;-4.30;99.90;;;;;;6181757;23;20163;-89
2021/01/11 00:10:09;;;;;;;17.65;10.90;;;-4.20;99.90;;;;;;6180673;23;20256;-89
2021/01/11 00:12:39;;;;;;;17.45;12.15;;;-4.30;99.90;;;;;;6181640;23;20183;-88
2021/01/11 00:15:07;;;;;;;20.08;13.43;;;-4.20;99.90;;;;;;6182071;23;20166;-91
2021/01/11 00:17:34;;;;;;;18.95;13.18;;;-4.30;99.90;;;;;;6182250;23;20185;-90
2021/01/11 00:19:59;;;;;;;17.63;11.80;;;-4.40;99.90;;;;;;6182107;23;20256;-90
2021/01/11 00:22:25;;;;;;;21.63;12.33;;;-4.50;99.90;;;;;;6182017;23;20211;-91
2021/01/11 00:24:51;;;;;;;18.77;12.27;;;-4.50;99.90;;;;;;6182071;23;20243;-91
2021/01/11 00:27:19;;;;;;;21.17;12.40;;;-4.50;99.90;;;;;;6181171;23;20162;-92
2021/01/11 00:29:48;;;;;;;16.88;11.13;;;-4.50;99.90;;;;;;6181088;23;20196;-91
2021/01/11 00:32:13;;;;;;;23.90;12.77;;;-4.50;99.90;;;;;;6177523;23;20166;-91
2021/01/11 00:34:39;;;;;;;20.60;12.43;;;-4.50;99.90;;;;;;6179792;23;20209;-91
2021/01/11 00:37:07;;;;;;;19.87;11.83;;;-4.40;99.90;;;;;;6180791;23;20173;-90
2021/01/11 00:39:39;;;;;;;19.17;11.93;;;-4.40;99.90;;;;;;6181595;23;20376;-92
2021/01/11 00:42:05;;;;;;;20.15;11.50;;;-4.50;99.90;;;;;;6181140;23;20190;-91
2021/01/11 00:44:32;;;;;;;17.45;11.75;;;-4.50;99.90;;;;;;6181531;23;20602;-90
2021/01/11 00:47:02;;;;;;;21.90;12.43;;;-4.60;99.90;;;;;;6181051;23;20173;-90
2021/01/11 00:49:33;;;;;;;18.65;11.57;;;-4.60;99.90;;;;;;6180419;23;20173;-90
2021/01/11 00:52:07;;;;;;;19.75;12.60;;;-4.70;99.90;;;;;;6180216;23;20168;-91
2021/01/11 00:54:34;;;;;;;20.88;12.55;;;-4.70;99.90;;;;;;6181393;23;20234;-90
2021/01/11 00:56:59;;;;;;;20.05;12.23;;;-4.80;99.90;;;;;;6180596;23;20175;-89
2021/01/11 00:59:26;;;;;;;19.80;11.87;;;-4.90;99.90;;;;;;6178989;23;20166;-90
2021/01/11 01:01:53;;;;;;;19.92;12.52;;;-4.90;99.90;;;;;;6181398;23;20640;-90
2021/01/11 01:04:20;;;;;;;17.48;10.75;;;-4.80;99.90;;;;;;6181203;23;20169;-90
2021/01/11 01:06:46;;;;;;;16.35;11.23;;;-4.80;99.90;;;;;;6179912;23;20171;-90
2021/01/11 01:09:12;;;;;;;19.98;12.35;;;-4.80;99.90;;;;;;6181527;23;20165;-90
2021/01/11 01:11:39;;;;;;;18.50;11.20;;;-4.80;99.90;;;;;;6181102;23;20160;-90
2021/01/11 01:14:06;;;;;;;18.30;11.77;;;-4.80;99.90;;;;;;6180986;23;20170;-90
2021/01/11 01:16:32;;;;;;;16.95;11.35;;;-4.90;99.90;;;;;;6181149;23;20198;-90
2021/01/11 01:18:58;;;;;;;19.80;12.40;;;-4.80;99.90;;;;;;6181205;23;20171;-89
2021/01/11 01:21:24;;;;;;;21.13;12.77;;;-4.80;99.90;;;;;;6181256;23;20406;-90
2021/01/11 01:23:50;;;;;;;21.70;12.33;;;-4.80;99.90;;;;;;6181460;23;20263;-92
2021/01/11 01:26:15;;;;;;;18.70;12.17;;;-4.90;99.90;;;;;;6182433;23;20173;-91
2021/01/11 01:28:41;;;;;;;18.63;11.43;;;-5.00;99.90;;;;;;6181140;23;20174;-91
2021/01/11 01:31:07;;;;;;;20.60;12.13;;;-5.00;99.90;;;;;;6181369;23;20190;-91
2021/01/11 01:33:32;;;;;;;19.73;12.87;;;-5.00;99.90;;;;;;6181486;23;20178;-90
2021/01/11 01:35:59;;;;;;;20.50;12.60;;;-4.90;99.90;;;;;;6181323;23;20213;-91
2021/01/11 01:38:24;;;;;;;21.30;12.95;;;-4.90;99.90;;;;;;6181311;23;20194;-89
2021/01/11 01:40:50;;;;;;;18.47;12.40;;;-4.80;99.90;;;;;;6207289;23;20173;-90
2021/01/11 01:43:16;;;;;;;19.73;11.37;;;-4.90;99.90;;;;;;6181795;23;20239;-90
2021/01/11 01:45:42;;;;;;;18.90;11.40;;;-4.90;99.90;;;;;;6180350;23;20168;-90
2021/01/11 01:48:09;;;;;;;20.47;11.90;;;-4.90;99.90;;;;;;6181324;23;20732;-90
2021/01/11 01:50:37;;;;;;;26.75;13.52;;;-5.00;99.90;;;;;;6180676;23;20391;-90
2021/01/11 01:53:03;;;;;;;17.10;11.60;;;-5.00;99.90;;;;;;6180951;23;20339;-90
2021/01/11 01:55:29;;;;;;;19.98;11.80;;;-5.00;99.90;;;;;;6181006;23;20163;-90
2021/01/11 01:58:01;;;;;;;18.13;11.93;;;-5.00;99.90;;;;;;6207628;23;20555;-90
2021/01/11 02:00:27;;;;;;;20.67;12.77;;;-5.00;99.90;;;;;;6181000;23;20242;-90
2021/01/11 02:02:52;;;;;;;17.17;12.50;;;-4.90;99.90;;;;;;6180555;23;20190;-89
2021/01/11 02:05:18;;;;;;;20.87;13.10;;;-4.90;99.90;;;;;;6180805;23;20164;-90
2021/01/11 02:08:03;;;;;;;18.13;12.55;;;-4.90;99.90;;;;;;6207412;23;20229;-90
2021/01/11 02:10:54;;;;;;;16.92;12.20;;;-5.00;99.90;;;;;;6181262;23;20169;-90
2021/01/11 02:13:29;;;;;;;21.23;13.57;;;-5.00;99.90;;;;;;6181234;23;20626;-89
2021/01/11 02:16:14;;;;;;;20.52;12.38;;;-5.10;99.90;;;;;;6180096;23;20595;-90
2021/01/11 02:18:53;;;;;;;19.45;11.65;;;-5.10;99.90;;;;;;6181094;23;20163;-91
2021/01/11 02:21:59;;;;;;;16.30;11.80;;;-5.10;99.90;;;;;;6181302;23;20167;-91
2021/01/11 02:24:56;;;;;;;20.40;12.80;;;-5.10;99.90;;;;;;6180936;23;20288;-89
2021/01/11 02:27:42;;;;;;;21.75;12.88;;;-5.20;99.90;;;;;;6180925;23;20173;-89
2021/01/11 02:30:12;;;;;;;19.98;12.70;;;-5.30;99.90;;;;;;6181146;23;20195;-90
2021/01/11 02:32:48;;;;;;;20.80;12.85;;;-5.40;99.90;;;;;;6180262;23;20639;-90
2021/01/11 02:35:16;;;;;;;20.55;12.50;;;-5.50;99.90;;;;;;6180055;23;20179;-90
2021/01/11 02:37:42;;;;;;;19.50;11.85;;;-5.50;99.90;;;;;;6181344;23;20167;-90
2021/01/11 02:40:10;;;;;;;19.42;12.43;;;-5.40;99.90;;;;;;6181596;23;20243;-92
2021/01/11 02:42:37;;;;;;;25.13;14.10;;;-5.40;99.90;;;;;;6182704;23;20288;-91
2021/01/11 02:45:07;;;;;;;23.90;12.27;;;-5.40;99.90;;;;;;6208342;23;20468;-92
2021/01/11 02:48:13;;;;;;;22.92;13.80;;;-5.40;99.90;;;;;;6181660;23;20724;-91
2021/01/11 02:50:53;;;;;;;22.38;14.15;;;-5.30;99.90;;;;;;6181416;23;20252;-92
2021/01/11 02:53:28;;;;;;;20.80;12.55;;;-5.20;99.90;;;;;;6181594;23;20160;-91
2021/01/11 02:56:10;;;;;;;21.90;14.10;;;-5.30;99.90;;;;;;6181971;23;20163;-91
2021/01/11 02:58:48;;;;;;;24.77;13.30;;;-5.40;99.90;;;;;;6206814;23;20188;-89
2021/01/11 03:01:17;;;;;;;21.05;13.07;;;-5.40;99.90;;;;;;6180833;23;20167;-90
2021/01/11 03:03:47;;;;;;;20.65;12.65;;;-5.40;99.90;;;;;;6180501;23;20587;-89
2021/01/11 03:06:13;;;;;;;21.10;12.68;;;-5.40;99.90;;;;;;6180381;23;20237;-90
2021/01/11 03:08:39;;;;;;;17.48;11.57;;;-5.30;99.90;;;;;;6180245;23;20204;-90
2021/01/11 03:11:05;;;;;;;21.10;12.83;;;-5.30;99.90;;;;;;6181092;23;20231;-91
2021/01/11 03:13:30;;;;;;;19.83;12.30;;;-5.30;99.90;;;;;;6181638;23;20403;-90
2021/01/11 03:15:56;;;;;;;19.50;12.27;;;-5.40;99.90;;;;;;6181255;23;20430;-91
2021/01/11 03:18:22;;;;;;;21.40;12.73;;;-5.50;99.90;;;;;;6180533;23;20191;-91
2021/01/11 03:20:48;;;;;;;16.53;10.87;;;-5.60;99.90;;;;;;6180507;23;20466;-90
2021/01/11 03:23:13;;;;;;;22.20;12.40;;;-5.50;99.90;;;;;;6180600;23;20439;-90
2021/01/11 03:25:42;;;;;;;16.97;10.50;;;-5.50;99.90;;;;;;6180524;23;20240;-90
2021/01/11 03:28:08;;;;;;;18.92;12.15;;;-5.50;99.90;;;;;;6180773;23;20167;-90
2021/01/11 03:30:34;;;;;;;20.43;10.70;;;-5.50;99.90;;;;;;6180644;23;20486;-90
2021/01/11 03:33:00;;;;;;;19.07;10.90;;;-5.50;99.90;;;;;;6180208;23;20214;-89
2021/01/11 03:35:28;;;;;;;16.47;10.17;;;-5.50;99.90;;;;;;6181680;23;20403;-89
2021/01/11 03:37:53;;;;;;;22.02;12.13;;;-5.50;99.90;;;;;;6182586;23;20169;-90
2021/01/11 03:40:19;;;;;;;18.37;11.73;;;-5.50;99.90;;;;;;6182287;23;20464;-90
2021/01/11 03:42:45;;;;;;;17.10;10.67;;;-5.50;99.90;;;;;;6182150;23;20282;-90
2021/01/11 03:45:11;;;;;;;20.20;11.00;;;-5.60;99.90;;;;;;6185027;23;20429;-91
2021/01/11 03:47:37;;;;;;;19.58;10.82;;;-5.60;99.90;;;;;;6182731;23;20233;-90
2021/01/11 03:50:05;;;;;;;19.07;11.00;;;-5.50;99.90;;;;;;6182090;23;20203;-90
2021/01/11 03:52:35;;;;;;;16.88;10.50;;;-5.50;99.90;;;;;;6183210;23;20431;-90
2021/01/11 03:55:02;;;;;;;20.17;12.30;;;-5.50;99.90;;;;;;6182085;23;20160;-90
2021/01/11 03:57:29;;;;;;;13.82;10.25;;;-5.50;99.90;;;;;;6182558;23;20636;-90
2021/01/11 03:59:55;;;;;;;19.45;11.32;;;-5.60;99.90;;;;;;6181910;23;20168;-90
2021/01/11 04:02:21;;;;;;;19.00;11.20;;;-5.70;99.90;;;;;;6182883;23;20193;-90
2021/01/11 04:04:46;;;;;;;18.80;11.33;;;-5.80;99.90;;;;;;6182381;23;20172;-92
2021/01/11 04:07:12;;;;;;;16.97;10.40;;;-5.80;99.90;;;;;;6182583;23;20594;-90
2021/01/11 04:09:38;;;;;;;18.95;11.63;;;-5.80;99.90;;;;;;6208942;23;20169;-92
2021/01/11 04:12:04;;;;;;;15.27;11.20;;;-5.90;99.90;;;;;;6182580;23;20562;-90
2021/01/11 04:14:30;;;;;;;20.73;12.30;;;-5.90;99.90;;;;;;6181881;23;20490;-90
2021/01/11 04:16:56;;;;;;;16.97;10.80;;;-5.90;99.90;;;;;;6183167;23;20383;-91
2021/01/11 04:19:21;;;;;;;19.33;11.50;;;-5.90;99.90;;;;;;6181689;23;20171;-91
2021/01/11 04:21:47;;;;;;;15.70;10.87;;;-5.80;99.90;;;;;;6182382;23;20164;-91
2021/01/11 04:24:13;;;;;;;15.63;10.40;;;-5.90;99.90;;;;;;6182184;23;20160;-91
2021/01/11 04:26:38;;;;;;;18.90;11.00;;;-5.80;99.90;;;;;;6181749;23;20243;-90
2021/01/11 04:29:04;;;;;;;17.70;11.33;;;-5.80;99.90;;;;;;6181985;23;20537;-91
2021/01/11 04:31:33;;;;;;;15.77;9.97;;;-5.80;99.90;;;;;;6182287;23;20165;-90
2021/01/11 04:33:59;;;;;;;16.27;10.77;;;-5.80;99.90;;;;;;6208229;23;20664;-89
2021/01/11 04:36:24;;;;;;;16.30;10.13;;;-5.80;99.90;;;;;;6181524;23;20494;-90
2021/01/11 04:38:53;;;;;;;19.37;10.47;;;-5.80;99.90;;;;;;6180559;23;20705;-89
2021/01/11 04:41:23;;;;;;;14.73;9.90;;;-5.90;99.90;;;;;;6182250;23;20167;-90
2021/01/11 04:43:49;;;;;;;17.45;10.98;;;-5.80;99.90;;;;;;6181715;23;20200;-91
2021/01/11 04:46:15;;;;;;;17.60;10.18;;;-5.80;99.90;;;;;;6182080;23;20170;-92
2021/01/11 04:48:41;;;;;;;16.58;10.57;;;-5.80;99.90;;;;;;6181671;23;20255;-91
2021/01/11 04:51:07;;;;;;;18.88;11.00;;;-5.80;99.90;;;;;;6181566;23;20237;-92
2021/01/11 04:53:34;;;;;;;14.53;9.47;;;-5.90;99.90;;;;;;6182267;23;20160;-91
2021/01/11 04:56:03;;;;;;;17.40;9.93;;;-5.90;99.90;;;;;;6181877;23;20391;-93
2021/01/11 04:58:56;;;;;;;17.73;9.85;;;-5.90;99.90;;;;;;6181922;23;20168;-92
2021/01/11 05:01:27;;;;;;;18.45;9.55;;;-5.90;99.90;;;;;;6178240;23;20551;-91
2021/01/11 05:03:58;;;;;;;14.75;9.85;;;-6.00;99.90;;;;;;6179667;23;20249;-90
2021/01/11 05:06:24;;;;;;;14.10;8.50;;;-6.00;99.90;;;;;;6181843;23;20164;-91
2021/01/11 05:08:50;;;;;;;14.05;9.13;;;-6.10;99.90;;;;;;6182164;23;20178;-91
2021/01/11 05:11:19;;;;;;;18.10;9.68;;;-6.10;99.90;;;;;;6182438;23;20263;-93
2021/01/11 05:13:53;;;;;;;14.90;9.18;;;-6.10;99.90;;;;;;6181278;23;20183;-91
2021/01/11 05:16:22;;;;;;;15.15;9.65;;;-6.10;99.90;;;;;;6205271;23;20163;-91
2021/01/11 05:18:50;;;;;;;15.90;9.68;;;-6.10;99.90;;;;;;6181014;23;20167;-91
2021/01/11 05:21:39;;;;;;;16.85;9.23;;;-6.10;99.90;;;;;;6180454;23;20191;-90
2021/01/11 05:24:28;;;;;;;16.83;10.70;;;-6.10;99.90;;;;;;6181841;23;20171;-92
2021/01/11 05:27:00;;;;;;;15.85;9.55;;;-6.00;99.90;;;;;;6181758;23;20545;-90
2021/01/11 05:29:26;;;;;;;16.40;9.98;;;-6.10;99.90;;;;;;6181081;23;20167;-90
2021/01/11 05:32:04;;;;;;;18.55;8.75;;;-6.10;99.90;;;;;;6181205;23;20202;-91
2021/01/11 05:35:00;;;;;;;16.13;9.88;;;-6.20;99.90;;;;;;6180265;23;20161;-92
2021/01/11 05:37:38;;;;;;;16.45;8.85;;;-6.20;99.90;;;;;;6156747;23;20171;-91
2021/01/11 05:40:08;;;;;;;18.48;9.52;;;-6.20;99.90;;;;;;6180643;23;20214;-91
2021/01/11 05:42:34;;;;;;;15.68;9.45;;;-6.20;99.90;;;;;;6180278;23;20203;-91
2021/01/11 05:45:15;;;;;;;16.05;9.25;;;-6.20;99.90;;;;;;6181841;23;20245;-92
2021/01/11 05:47:58;;;;;;;17.95;9.70;;;-6.20;99.90;;;;;;6180530;23;20175;-91
2021/01/11 05:50:40;;;;;;;17.15;8.73;;;-6.40;99.90;;;;;;6180872;23;20171;-90
2021/01/11 05:53:18;;;;;;;15.40;9.40;;;-6.30;99.90;;;;;;6181569;23;20163;-92
2021/01/11 05:58:35;;;;;;;19.40;11.13;;;-6.40;99.90;;;;;;6208590;22;20418;-89
2021/01/11 06:01:01;;;;;;;17.45;10.63;;;-6.40;99.90;;;;;;6182530;23;20186;-95
2021/01/11 06:03:27;;;;;;;18.70;11.03;;;-6.30;99.90;;;;;;6182910;23;20195;-95
2021/01/11 06:05:53;;;;;;;18.50;11.00;;;-6.30;99.90;;;;;;6182807;23;20163;-94
2021/01/11 06:08:19;;;;;;;20.17;11.82;;;-6.30;99.90;;;;;;6183431;23;20414;-95
2021/01/11 06:10:44;;;;;;;20.90;11.83;;;-6.30;99.90;;;;;;6181918;23;20163;-93
2021/01/11 06:13:31;;;;;;;18.83;11.07;;;-6.30;99.90;;;;;;6191915;23;20156;-95
2021/01/11 06:15:58;;;;;;;20.52;11.05;;;-6.30;99.90;;;;;;6191786;23;20195;-95
2021/01/11 06:18:24;;;;;;;20.13;11.60;;;-6.20;99.90;;;;;;6182310;23;20164;-92
2021/01/11 06:20:53;;;;;;;24.30;14.50;;;-6.20;99.90;;;;;;6182906;23;20167;-91
2021/01/11 06:23:40;;;;;;;19.15;11.65;;;-6.20;99.90;;;;;;6175408;23;20196;-94
2021/01/11 06:26:24;;;;;;;21.45;11.80;;;-6.10;99.90;;;;;;6185728;23;20258;-94
2021/01/11 06:28:51;;;;;;;20.25;12.80;;;-6.00;99.90;;;;;;6192001;23;20195;-93
2021/01/11 06:31:51;;;;;;;24.05;13.93;;;-6.10;99.90;;;;;;6183296;23;20250;-91
2021/01/11 06:34:39;;;;;;;22.27;11.73;;;-6.10;99.90;;;;;;6198420;23;20184;-90
2021/01/11 06:37:25;;;;;;;22.70;13.73;;;-6.00;99.90;;;;;;6181180;23;20213;-91
2021/01/11 06:39:50;;;;;;;21.55;12.00;;;-6.00;99.90;;;;;;6180876;23;20167;-90
2021/01/11 06:42:19;;;;;;;20.90;11.97;;;-6.00;99.90;;;;;;6201249;23;20191;-91
2021/01/11 06:44:49;;;;;;;20.27;13.70;;;-6.00;99.90;;;;;;6182164;23;20202;-91
2021/01/11 06:47:42;;;;;;;23.67;13.10;;;-6.00;99.90;;;;;;6180276;23;20159;-90
2021/01/11 06:50:09;;;;;;;21.95;12.68;;;-6.00;99.90;;;;;;6176875;23;20226;-88
2021/01/11 06:52:37;;;;;;;21.30;12.82;;;-5.90;99.90;;;;;;6181111;23;20167;-89
2021/01/11 06:55:14;;;;;;;20.30;12.80;;;-6.00;99.90;;;;;;6182277;23;20159;-89
2021/01/11 06:57:46;;;;;;;22.60;13.27;;;-6.00;99.90;;;;;;6181734;23;20183;-89
2021/01/11 07:00:19;;;;;;;20.27;12.30;;;-6.00;99.90;;;;;;6182529;23;20164;-88
2021/01/11 07:02:44;;;;;;;17.80;10.48;;;-5.90;99.90;;;;;;6183301;23;20191;-89
2021/01/11 07:05:35;;;;;;;20.27;12.23;;;-5.80;99.90;;;;;;6180450;23;20195;-90
2021/01/11 07:08:20;;;;;;;22.40;12.75;;;-5.90;99.90;;;;;;6179688;23;20398;-88
2021/01/11 07:11:01;;;;;;;14.63;10.98;;;-5.90;99.90;;;;;;6184070;23;20584;-90
2021/01/11 07:13:44;;;;;;;25.75;14.90;;;-5.80;99.90;;;;;;6209582;23;20156;-88
2021/01/11 07:16:17;;;;;;;25.38;15.43;;;-5.90;99.90;;;;;;6183156;23;20167;-88
2021/01/11 07:18:43;;;;;;;26.02;15.02;;;-5.80;99.90;;;;;;6182776;23;20247;-90
2021/01/11 07:21:12;;;;;;;32.87;19.33;;;-5.80;99.90;;;;;;6182326;23;20199;-89
2021/01/11 07:23:41;;;;;;;40.03;20.10;;;-5.70;99.90;;;;;;6184157;23;20529;-87
2021/01/11 07:26:55;;;;;;;35.28;19.80;;;-5.70;99.90;;;;;;6179384;23;20180;-87
2021/01/11 07:29:52;;;;;;;35.95;20.40;;;-5.70;99.90;;;;;;6208734;23;20214;-87
2021/01/11 07:32:18;;;;;;;52.28;26.48;;;-5.80;99.90;;;;;;6182333;23;20167;-87
2021/01/11 07:34:44;;;;;;;34.40;19.50;;;-5.80;99.90;;;;;;6197144;23;20164;-90
2021/01/11 07:37:34;;;;;;;33.38;18.92;;;-5.70;99.90;;;;;;6206628;23;20167;-90
2021/01/11 07:40:11;;;;;;;33.60;18.60;;;-5.80;99.90;;;;;;6187515;23;20224;-92
2021/01/11 07:42:41;;;;;;;33.70;19.67;;;-5.70;99.90;;;;;;6191369;23;20249;-89
2021/01/11 07:45:12;;;;;;;30.70;17.23;;;-5.70;99.90;;;;;;6184790;23;20167;-88
2021/01/11 07:47:41;;;;;;;25.20;15.70;;;-5.70;99.90;;;;;;6186408;23;20163;-88
2021/01/11 07:50:58;;;;;;;25.33;13.68;;;-5.70;99.90;;;;;;6184253;23;20452;-90
2021/01/11 07:53:27;;;;;;;99.32;50.78;;;-5.70;99.90;;;;;;6206765;23;20168;-88
2021/01/11 07:55:52;;;;;;;27.15;13.80;;;-5.60;99.90;;;;;;6182877;23;20187;-93
2021/01/11 07:58:27;;;;;;;18.80;11.30;;;-5.60;99.90;;;;;;6176919;23;20434;-90
2021/01/11 08:01:10;;;;;;;16.30;10.23;;;-5.50;99.90;;;;;;6202569;23;20168;-91
2021/01/11 08:03:57;;;;;;;17.13;10.23;;;-5.50;99.90;;;;;;6182029;23;20661;-87
2021/01/11 08:06:28;;;;;;;18.58;10.73;;;-5.60;99.90;;;;;;6182026;23;20189;-88
2021/01/11 08:08:56;;;;;;;21.42;11.02;;;-5.60;99.90;;;;;;6178511;23;20191;-88
2021/01/11 08:11:28;;;;;;;16.77;10.63;;;-5.50;99.90;;;;;;6181729;23;20163;-88
2021/01/11 08:14:28;;;;;;;18.80;11.75;;;-5.40;99.90;;;;;;6204475;23;20234;-88
2021/01/11 08:17:30;;;;;;;25.50;12.68;;;-5.50;99.90;;;;;;6200093;23;20159;-88
2021/01/11 08:20:35;;;;;;;17.02;10.63;;;-5.30;99.90;;;;;;6208356;23;20494;-89
2021/01/11 08:23:24;;;;;;;14.75;9.85;;;-5.40;99.90;;;;;;6206077;23;20527;-89
2021/01/11 08:26:03;;;;;;;17.38;9.90;;;-5.40;99.90;;;;;;6144151;23;20165;-90
2021/01/11 08:28:30;;;;;;;16.95;11.10;;;-5.40;99.90;;;;;;6163714;23;20253;-89
2021/01/11 08:31:00;;;;;;;22.13;12.10;;;-5.30;99.90;;;;;;6205334;23;20476;-92
2021/01/11 08:33:33;;;;;;;19.58;11.00;;;-5.20;99.90;;;;;;6180802;23;20164;-92
2021/01/11 08:36:18;;;;;;;16.80;9.50;;;-5.10;99.90;;;;;;6203063;23;20160;-91
2021/01/11 08:39:09;;;;;;;19.90;12.18;;;-5.10;99.90;;;;;;6208000;23;20164;-90
2021/01/11 08:42:00;;;;;;;19.70;11.43;;;-5.00;99.90;;;;;;6197717;23;20238;-89
2021/01/11 08:44:39;;;;;;;20.55;9.27;;;-4.60;99.90;;;;;;6181192;23;20249;-90
2021/01/11 08:47:13;;;;;;;19.13;9.68;;;-4.10;99.90;;;;;;6208917;23;20159;-89
2021/01/11 08:50:17;;;;;;;17.05;10.32;;;-3.80;99.90;;;;;;6207897;23;20164;-88
2021/01/11 08:53:18;;;;;;;21.55;10.93;;;-3.70;99.90;;;;;;6179286;23;20191;-89
2021/01/11 08:56:02;;;;;;;19.75;10.13;;;-3.50;99.90;;;;;;6180340;23;20613;-88
2021/01/11 08:58:29;;;;;;;19.67;11.93;;;-3.20;99.90;;;;;;6206862;23;20519;-88
2021/01/11 09:01:24;;;;;;;19.05;10.82;;;-2.90;99.90;;;;;;6180265;23;20164;-87
2021/01/11 09:03:58;;;;;;;18.50;11.68;;;-2.90;99.90;;;;;;6180772;23;20354;-87
2021/01/11 09:06:49;;;;;;;19.58;10.60;;;-2.70;99.90;;;;;;6179762;23;20250;-90
2021/01/11 09:09:17;;;;;;;19.10;11.90;;;-2.60;99.90;;;;;;6179790;23;20478;-93
2021/01/11 09:11:46;;;;;;;19.70;11.55;;;-2.60;99.90;;;;;;6184532;23;20241;-89
2021/01/11 09:14:27;;;;;;;18.73;10.35;;;-2.50;99.90;;;;;;6208336;23;20466;-90
2021/01/11 09:17:03;;;;;;;18.95;11.18;;;-2.60;99.90;;;;;;6181868;23;20580;-91
2021/01/11 09:19:32;;;;;;;19.70;11.07;;;-2.70;99.90;;;;;;6211418;23;20167;-90
2021/01/11 09:22:42;;;;;;;17.23;10.63;;;-2.70;99.90;;;;;;6181457;23;20260;-89
2021/01/11 09:25:11;;;;;;;36.17;20.17;;;-2.70;99.90;;;;;;6192893;23;20179;-88
2021/01/11 09:27:39;;;;;;;19.67;11.13;;;-2.60;99.90;;;;;;6181128;23;20165;-89
2021/01/11 09:30:07;;;;;;;24.42;13.40;;;-2.40;99.90;;;;;;6180580;23;20171;-91
2021/01/11 09:32:52;;;;;;;12.32;7.75;;;-2.40;99.90;;;;;;6203318;23;20580;-89
2021/01/11 09:35:18;;;;;;;19.23;11.25;;;-2.40;99.90;;;;;;6198123;23;20552;-90
2021/01/11 09:37:52;;;;;;;23.10;12.47;;;-2.20;99.90;;;;;;6179875;23;20228;-90
2021/01/11 09:40:46;;;;;;;21.48;11.77;;;-1.90;99.90;;;;;;6181575;23;20252;-89
2021/01/11 09:43:12;;;;;;;21.25;11.18;;;-1.90;99.90;;;;;;6180336;23;20194;-91
2021/01/11 09:45:39;;;;;;;19.95;11.50;;;-1.40;99.90;;;;;;6183862;23;20217;-91
2021/01/11 09:48:07;;;;;;;19.55;11.57;;;-1.30;99.90;;;;;;6180713;23;20167;-92
2021/01/11 09:51:10;;;;;;;19.20;12.82;;;-1.20;99.90;;;;;;6198487;23;20470;-90
2021/01/11 09:53:45;;;;;;;18.08;11.45;;;-0.80;99.90;;;;;;6173297;23;20171;-91
2021/01/11 09:56:11;;;;;;;20.15;11.70;;;-0.80;99.50;;;;;;6180920;23;20494;-90
2021/01/11 09:58:37;;;;;;;15.70;9.53;;;-0.40;99.90;;;;;;6180027;23;20584;-91
2021/01/11 10:01:02;;;;;;;19.00;11.07;;;0.00;99.00;;;;;;6180493;23;20479;-90
2021/01/11 10:03:48;;;;;;;18.33;11.63;;;-0.40;98.60;;;;;;6181590;23;20191;-89
2021/01/11 10:06:17;;;;;;;18.05;12.10;;;-0.40;99.50;;;;;;6180862;23;20418;-90
2021/01/11 10:08:52;;;;;;;18.33;11.35;;;-0.20;99.40;;;;;;6201830;23;20367;-90
2021/01/11 10:11:18;;;;;;;18.27;11.67;;;0.30;99.20;;;;;;6180730;23;20167;-92
2021/01/11 10:13:45;;;;;;;20.53;12.93;;;0.50;97.80;;;;;;6180920;23;20159;-92
2021/01/11 10:16:11;;;;;;;21.33;11.87;;;0.90;97.20;;;;;;6206332;23;20490;-91
2021/01/11 10:18:37;;;;;;;16.50;9.70;;;0.80;96.80;;;;;;6181575;23;20425;-90
2021/01/11 10:21:03;;;;;;;18.37;12.40;;;0.80;95.80;;;;;;6182360;23;20434;-90
2021/01/11 10:23:28;;;;;;;19.60;12.30;;;1.10;96.30;;;;;;6182285;23;20473;-91
2021/01/11 10:25:58;;;;;;;16.77;11.40;;;1.70;95.30;;;;;;6207964;23;20651;-91
2021/01/11 10:28:25;;;;;;;18.30;11.50;;;1.60;94.70;;;;;;6206415;23;20560;-91
2021/01/11 10:30:51;;;;;;;18.87;11.60;;;1.50;94.50;;;;;;6179455;23;20391;-90
2021/01/11 10:33:17;;;;;;;15.50;10.47;;;1.70;94.80;;;;;;6179618;23;20402;-90
2021/01/11 10:35:59;;;;;;;18.53;10.80;;;1.70;93.20;;;;;;6206867;23;20498;-89
2021/01/11 10:38:25;;;;;;;14.17;10.07;;;1.60;93.80;;;;;;6179187;23;20395;-90
2021/01/11 10:40:51;;;;;;;16.20;10.57;;;2.00;92.90;;;;;;6181212;23;20257;-91
2021/01/11 10:43:22;;;;;;;18.83;11.47;;;2.70;92.60;;;;;;6180892;23;20199;-92
2021/01/11 10:45:48;;;;;;;17.30;12.70;;;3.40;88.60;;;;;;6183885;23;20496;-91
2021/01/11 10:48:14;;;;;;;18.70;11.70;;;4.00;85.00;;;;;;6182566;23;21313;-92
2021/01/11 10:50:46;;;;;;;18.13;12.33;;;3.40;82.70;;;;;;6177589;23;20171;-92
2021/01/11 10:53:12;;;;;;;19.07;11.80;;;4.00;82.50;;;;;;6182071;23;20877;-91
2021/01/11 10:55:38;;;;;;;15.10;10.80;;;4.10;82.50;;;;;;6182164;23;20402;-91
2021/01/11 10:58:03;;;;;;;18.53;11.40;;;4.10;79.20;;;;;;6183440;23;20411;-94
2021/01/11 11:00:30;;;;;;;16.93;11.00;;;4.80;80.50;;;;;;6187043;23;20160;-92
2021/01/11 11:02:56;;;;;;;18.67;11.80;;;5.90;71.70;;;;;;6184950;23;20703;-91
2021/01/11 11:05:22;;;;;;;17.53;11.90;;;5.60;67.60;;;;;;6186233;23;20392;-90
2021/01/11 11:07:47;;;;;;;16.33;11.40;;;5.30;69.00;;;;;;6188167;23;20164;-95
2021/01/11 11:10:13;;;;;;;18.60;12.33;;;5.30;69.10;;;;;;6194771;23;20504;-95
2021/01/11 11:12:42;;;;;;;14.43;10.60;;;5.40;68.20;;;;;;6193336;23;20396;-96
2021/01/11 11:15:08;;;;;;;20.30;12.53;;;6.00;65.40;;;;;;6192811;23;20329;-96
2021/01/11 11:17:34;;;;;;;16.77;11.60;;;6.40;62.70;;;;;;6193232;23;20403;-96
2021/01/11 11:20:03;;;;;;;15.07;11.67;;;6.40;59.70;;;;;;6192817;23;20390;-93
2021/01/11 11:22:28;;;;;;;16.07;11.63;;;6.80;58.80;;;;;;6191405;23;20219;-92
2021/01/11 11:24:54;;;;;;;19.30;13.67;;;7.70;55.80;;;;;;6183291;23;20810;-90
2021/01/11 11:27:19;;;;;;;16.73;11.30;;;7.80;54.50;;;;;;6184481;23;20664;-93
2021/01/11 11:29:45;;;;;;;19.67;13.47;;;6.70;53.40;;;;;;6188819;23;20666;-92
2021/01/11 11:32:12;;;;;;;15.37;11.67;;;6.10;56.50;;;;;;6183401;23;20175;-93
2021/01/11 11:34:40;;;;;;;19.80;12.83;;;5.30;57.90;;;;;;6184802;23;20402;-93
2021/01/11 11:37:08;;;;;;;15.27;11.57;;;4.30;61.50;;;;;;6214907;23;20395;-94
2021/01/11 11:39:44;;;;;;;17.13;11.83;;;3.80;68.40;;;;;;6193567;23;20399;-96
2021/01/11 11:42:11;;;;;;;16.53;11.87;;;3.70;70.80;;;;;;6190149;23;20428;-95
2021/01/11 11:44:37;;;;;;;14.67;10.63;;;4.00;75.10;;;;;;6189742;23;20399;-95
2021/01/11 11:47:03;;;;;;;16.77;11.73;;;5.70;66.90;;;;;;6186649;23;20391;-94
2021/01/11 11:49:28;;;;;;;16.40;11.60;;;5.80;60.80;;;;;;6186992;23;20656;-95
2021/01/11 11:54:26;;;;;;;16.23;11.30;;;3.00;72.00;;;;;;6213592;23;20195;-92
2021/01/11 11:57:02;;;;;;;21.90;14.00;;;2.20;78.80;;;;;;6183030;23;20391;-92
2021/01/11 11:59:45;;;;;;;15.00;11.23;;;2.10;84.30;;;;;;6180257;23;20162;-92
2021/01/11 12:04:46;;;;;;;17.20;12.87;;;7.10;65.30;;;;;;6206938;23;20419;-90
2021/01/11 12:07:18;;;;;;;15.50;11.77;;;9.30;53.70;;;;;;6180402;23;20379;-92
2021/01/11 12:09:44;;;;;;;18.10;13.93;;;10.90;46.10;;;;;;6180033;23;20166;-90
2021/01/11 12:12:14;;;;;;;16.23;12.40;;;10.80;43.80;;;;;;6181378;23;20381;-90
2021/01/11 12:14:47;;;;;;;15.80;13.17;;;9.20;46.30;;;;;;6177897;23;20246;-90
2021/01/11 12:17:13;;;;;;;17.10;15.33;;;9.10;48.50;;;;;;6178278;23;20395;-93
2021/01/11 12:19:46;;;;;;;17.57;13.60;;;10.00;46.10;;;;;;6180437;23;20485;-91
2021/01/11 12:22:35;;;;;;;19.10;12.80;;;11.10;43.80;;;;;;6181836;23;20506;-93
2021/01/11 12:25:04;;;;;;;16.77;13.20;;;11.60;41.80;;;;;;6182534;23;20438;-94
2021/01/11 12:28:19;;;;;;;16.10;13.30;;;11.90;39.40;;;;;;6182596;23;20381;-93
2021/01/11 12:30:49;;;;;;;16.73;12.97;;;11.60;41.00;;;;;;6207956;23;21027;-93
2021/01/11 12:33:16;;;;;;;15.67;13.40;;;9.30;45.10;;;;;;6209682;23;20410;-93
2021/01/11 12:35:50;;;;;;;15.50;13.47;;;10.90;44.30;;;;;;6208853;23;20168;-93
2021/01/11 12:38:16;;;;;;;15.57;13.07;;;11.00;39.90;;;;;;6183132;23;20931;-93
2021/01/11 12:40:42;;;;;;;17.33;13.93;;;11.50;41.00;;;;;;6183547;23;20667;-91
2021/01/11 12:43:10;;;;;;;16.40;13.60;;;12.90;39.20;;;;;;6183650;23;20199;-92
2021/01/11 12:45:38;;;;;;;14.80;13.23;;;13.60;35.30;;;;;;6210402;23;20468;-92
2021/01/11 12:48:06;;;;;;;14.50;12.60;;;12.30;35.50;;;;;;6183284;23;20399;-91
2021/01/11 12:50:31;;;;;;;14.80;12.63;;;12.20;37.70;;;;;;6183510;23;20207;-92
2021/01/11 12:52:57;;;;;;;14.10;12.60;;;12.10;37.50;;;;;;6183944;23;20772;-93
2021/01/11 12:55:30;;;;;;;19.13;14.70;;;12.60;37.20;;;;;;6210454;23;20226;-92
2021/01/11 12:58:08;;;;;;;22.80;16.20;;;12.60;36.30;;;;;;6183355;23;20446;-91
2021/01/11 13:00:34;;;;;;;20.53;16.53;;;13.10;36.10;;;;;;6182948;23;20466;-92
2021/01/11 13:03:01;;;;;;;19.57;14.20;;;12.80;36.00;;;;;;6183725;23;20496;-91